Mamaroneck, New York
Current Conditions -  °F | °C
As of 7:56 PM on Friday 19 Dec 2014 (Local Time) from KHPN Reporting Station
Overcast Overcast  
Wind Chill: 23°   Ceiling: 2900
Heat Index: 32°   Visibility: 10mi
Dew Point: 20°   Wind: 13mph
Humidity: 61%   Direction: 320°NW
Pressure: 30.12"   Gusts: NA
Location:  40.95°N, 73.73°W
Report Text: KHPN 200056Z 32011KT 10SM OVC029 00/M07 A3012 RMK AO2 SLP206 T00001067
Loading
Personal Weather Stations






























Interactive Weather Map New forecast layout! Learn more

10-Day Weather Forecast

Advertisements
Track Severe Weather on mobile